Time;durP1;ratioP1;P1;durP2;ratioP2;P2;SDS_P1;SDS_P2;PMS_P1;PMS_P2;Temp;Humidity;BMP_temperature;BMP_pressure;BME280_temperature;BME280_humidity;BME280_pressure;Samples;Min_cycle;Max_cycle;Signal;HPM_P1;HPM_P2
2022/08/01 00:01:45;;;;;;;;;1.00;0.00;;;;;;;;5074632;28;45327;-62
2022/08/01 00:04:10;;;;;;;;;0.25;0.25;;;;;;;;5074417;28;45417;-63
2022/08/01 00:06:35;;;;;;;;;0.00;0.00;;;;;;;;5074277;28;45502;-63
2022/08/01 00:09:00;;;;;;;;;1.00;1.00;;;;;;;;5074446;28;45503;-63
2022/08/01 00:11:26;;;;;;;;;2.00;0.25;;;;;;;;5074633;28;45425;-62
2022/08/01 00:13:51;;;;;;;;;1.00;1.00;;;;;;;;5074691;28;45336;-63
2022/08/01 00:16:17;;;;;;;;;0.00;0.00;;;;;;;;5074086;28;45722;-62
2022/08/01 00:18:42;;;;;;;;;1.00;1.00;;;;;;;;5074135;27;45361;-62
2022/08/01 00:21:07;;;;;;;;;1.00;1.00;;;;;;;;5074355;28;45392;-63
2022/08/01 00:23:32;;;;;;;;;1.00;1.00;;;;;;;;5074210;28;45413;-63
2022/08/01 00:25:57;;;;;;;;;0.25;0.25;;;;;;;;5073984;28;46426;-63
2022/08/01 00:28:23;;;;;;;;;1.00;1.00;;;;;;;;5055891;28;45426;-63
2022/08/01 00:30:48;;;;;;;;;1.00;1.00;;;;;;;;5074050;28;45369;-63
2022/08/01 00:33:13;;;;;;;;;1.00;1.00;;;;;;;;5074220;28;45348;-63
2022/08/01 00:35:38;;;;;;;;;1.50;1.50;;;;;;;;5074025;28;46307;-63
2022/08/01 00:38:04;;;;;;;;;1.00;1.00;;;;;;;;5074273;28;45598;-63
2022/08/01 00:40:29;;;;;;;;;0.50;0.50;;;;;;;;5074272;28;45338;-63
2022/08/01 00:42:54;;;;;;;;;1.00;1.00;;;;;;;;5073654;28;45361;-64
2022/08/01 00:45:20;;;;;;;;;1.00;1.00;;;;;;;;5073887;28;46412;-63
2022/08/01 00:47:45;;;;;;;;;0.75;0.75;;;;;;;;5055711;27;46183;-63
2022/08/01 00:50:11;;;;;;;;;1.75;1.75;;;;;;;;5074252;27;45293;-63
2022/08/01 00:52:37;;;;;;;;;2.00;1.00;;;;;;;;5074033;28;45368;-63
2022/08/01 00:55:02;;;;;;;;;1.00;1.00;;;;;;;;5073544;28;45695;-63
2022/08/01 00:57:27;;;;;;;;;1.25;1.25;;;;;;;;5073618;28;45446;-62
2022/08/01 00:59:53;;;;;;;;;1.50;1.50;;;;;;;;5074140;28;45579;-62
2022/08/01 01:02:18;;;;;;;;;1.50;0.50;;;;;;;;5073744;28;45440;-63
2022/08/01 01:04:43;;;;;;;;;1.00;1.00;;;;;;;;5073562;28;45359;-63
2022/08/01 01:07:27;;;;;;;;;0.00;0.00;;;;;;;;5073715;28;45748;-62
2022/08/01 01:10:00;;;;;;;;;1.00;1.00;;;;;;;;5073918;28;45761;-63
2022/08/01 01:12:29;;;;;;;;;2.25;2.00;;;;;;;;5073544;28;45439;-62
2022/08/01 01:15:06;;;;;;;;;2.00;2.00;;;;;;;;5073515;28;46622;-62
2022/08/01 01:17:45;;;;;;;;;1.25;1.25;;;;;;;;5073299;28;45452;-62
2022/08/01 01:20:12;;;;;;;;;1.00;1.00;;;;;;;;5073489;28;45281;-62
2022/08/01 01:22:49;;;;;;;;;1.00;1.00;;;;;;;;5073369;28;45433;-63
2022/08/01 01:25:22;;;;;;;;;1.00;1.00;;;;;;;;5073288;28;46660;-62
2022/08/01 01:28:08;;;;;;;;;0.50;0.00;;;;;;;;5073069;28;45467;-62
2022/08/01 01:30:33;;;;;;;;;0.50;0.50;;;;;;;;5073160;28;45362;-62
2022/08/01 01:33:00;;;;;;;;;1.25;1.25;;;;;;;;5073498;28;45815;-63
2022/08/01 01:35:28;;;;;;;;;1.00;1.00;;;;;;;;5073167;28;45688;-63
2022/08/01 01:37:57;;;;;;;;;1.00;1.00;;;;;;;;5073232;28;45445;-62
2022/08/01 01:40:24;;;;;;;;;1.00;1.00;;;;;;;;5073281;28;45440;-63
2022/08/01 01:42:51;;;;;;;;;2.75;1.50;;;;;;;;5072800;28;45306;-63
2022/08/01 01:45:17;;;;;;;;;2.00;2.00;;;;;;;;5073296;28;46507;-63
2022/08/01 01:47:43;;;;;;;;;1.25;1.25;;;;;;;;5073116;28;45365;-62
2022/08/01 01:50:11;;;;;;;;;1.25;1.25;;;;;;;;5073198;28;45361;-63
2022/08/01 01:52:37;;;;;;;;;3.00;1.00;;;;;;;;5073297;28;45397;-63
2022/08/01 01:55:05;;;;;;;;;2.00;1.00;;;;;;;;5073029;28;46424;-62
2022/08/01 01:57:32;;;;;;;;;2.25;2.25;;;;;;;;5072671;28;45395;-63
2022/08/01 01:59:58;;;;;;;;;2.50;2.00;;;;;;;;5072643;28;45635;-63
2022/08/01 02:02:23;;;;;;;;;1.75;1.75;;;;;;;;5072881;28;45427;-62
2022/08/01 02:04:50;;;;;;;;;2.00;2.00;;;;;;;;5072816;28;46449;-62
2022/08/01 02:07:20;;;;;;;;;1.00;1.00;;;;;;;;5072994;28;45583;-63
2022/08/01 02:09:46;;;;;;;;;1.00;1.00;;;;;;;;5054803;28;45478;-63
2022/08/01 02:12:11;;;;;;;;;1.00;1.00;;;;;;;;5072819;28;45355;-62
2022/08/01 02:14:37;;;;;;;;;2.50;1.00;;;;;;;;5072942;28;45379;-62
2022/08/01 02:17:06;;;;;;;;;2.00;2.00;;;;;;;;5072516;28;45403;-63
2022/08/01 02:19:34;;;;;;;;;1.00;1.00;;;;;;;;5072877;28;45288;-62
2022/08/01 02:22:00;;;;;;;;;1.00;1.00;;;;;;;;5072834;28;45437;-62
2022/08/01 02:24:45;;;;;;;;;1.00;1.00;;;;;;;;5072900;28;46480;-61
2022/08/01 02:27:28;;;;;;;;;1.25;1.25;;;;;;;;5073181;27;45683;-61
2022/08/01 02:29:58;;;;;;;;;0.25;0.25;;;;;;;;5073189;28;45540;-62
2022/08/01 02:32:25;;;;;;;;;1.00;1.00;;;;;;;;5072961;28;45656;-61
2022/08/01 02:34:51;;;;;;;;;1.50;1.50;;;;;;;;5072818;28;45898;-62
2022/08/01 02:37:17;;;;;;;;;3.00;1.75;;;;;;;;5072819;28;45468;-61
2022/08/01 02:39:44;;;;;;;;;1.00;1.00;;;;;;;;5073039;28;45468;-63
2022/08/01 02:42:11;;;;;;;;;1.00;1.00;;;;;;;;5072959;28;45492;-64
2022/08/01 02:44:38;;;;;;;;;1.00;1.00;;;;;;;;5072555;28;46576;-61
2022/08/01 02:47:04;;;;;;;;;0.25;0.25;;;;;;;;5072907;28;45540;-63
2022/08/01 02:49:32;;;;;;;;;1.25;1.25;;;;;;;;5055803;28;45364;-63
2022/08/01 02:51:58;;;;;;;;;2.00;2.00;;;;;;;;5072954;28;45452;-63
2022/08/01 02:54:25;;;;;;;;;1.75;1.00;;;;;;;;5072664;28;47189;-63
2022/08/01 02:56:51;;;;;;;;;1.50;1.50;;;;;;;;5072466;28;45421;-63
2022/08/01 02:59:18;;;;;;;;;1.00;1.00;;;;;;;;5055771;28;45606;-62
2022/08/01 03:01:45;;;;;;;;;1.25;1.25;;;;;;;;5072511;28;45468;-63
2022/08/01 03:04:11;;;;;;;;;0.00;0.00;;;;;;;;5063181;28;45639;-62
2022/08/01 03:06:37;;;;;;;;;2.00;1.00;;;;;;;;5052178;28;46191;-63
2022/08/01 03:09:03;;;;;;;;;1.25;1.25;;;;;;;;5051936;28;45351;-63
2022/08/01 03:11:30;;;;;;;;;2.00;2.00;;;;;;;;5050787;28;45635;-63
2022/08/01 03:13:56;;;;;;;;;1.00;1.00;;;;;;;;5051667;28;45629;-63
2022/08/01 03:16:23;;;;;;;;;0.25;0.25;;;;;;;;5051722;28;45344;-63
2022/08/01 03:18:49;;;;;;;;;0.75;0.75;;;;;;;;5051568;28;45386;-63
2022/08/01 03:21:15;;;;;;;;;1.25;1.25;;;;;;;;5051724;28;45369;-63
2022/08/01 03:23:41;;;;;;;;;0.00;0.00;;;;;;;;5051417;28;46113;-63
2022/08/01 03:26:07;;;;;;;;;0.50;0.50;;;;;;;;5057193;28;45355;-62
2022/08/01 03:28:32;;;;;;;;;2.75;1.50;;;;;;;;5071950;28;45277;-62
2022/08/01 03:30:59;;;;;;;;;1.00;1.00;;;;;;;;5071852;28;45394;-62
2022/08/01 03:33:24;;;;;;;;;2.00;2.00;;;;;;;;5053467;28;46654;-62
2022/08/01 03:35:53;;;;;;;;;0.50;0.50;;;;;;;;5071530;28;45411;-62
2022/08/01 03:38:21;;;;;;;;;1.00;1.00;;;;;;;;5071931;28;45381;-63
2022/08/01 03:40:52;;;;;;;;;0.00;0.00;;;;;;;;5071634;28;45420;-63
2022/08/01 03:43:26;;;;;;;;;1.00;0.25;;;;;;;;5071189;28;46497;-63
2022/08/01 03:45:53;;;;;;;;;0.50;0.50;;;;;;;;5071581;28;45380;-63
2022/08/01 03:48:19;;;;;;;;;2.00;1.00;;;;;;;;5071609;28;45357;-63
2022/08/01 03:50:50;;;;;;;;;1.00;1.00;;;;;;;;5071538;28;45437;-63
2022/08/01 03:53:15;;;;;;;;;1.00;1.00;;;;;;;;5053050;28;47730;-63
2022/08/01 03:55:42;;;;;;;;;1.00;1.00;;;;;;;;5071125;28;45400;-63
2022/08/01 03:58:08;;;;;;;;;1.00;0.50;;;;;;;;5071522;28;45471;-63
2022/08/01 04:00:35;;;;;;;;;0.75;0.75;;;;;;;;5071442;28;45368;-63
2022/08/01 04:03:00;;;;;;;;;0.25;0.25;;;;;;;;5071206;28;45824;-63
2022/08/01 04:05:25;;;;;;;;;1.75;1.00;;;;;;;;5071123;28;45304;-62
2022/08/01 04:07:57;;;;;;;;;1.00;1.00;;;;;;;;5071326;28;45445;-63
2022/08/01 04:10:22;;;;;;;;;1.25;1.25;;;;;;;;5053464;27;45459;-62
2022/08/01 04:12:48;;;;;;;;;0.50;0.50;;;;;;;;5071106;28;45682;-62
2022/08/01 04:15:13;;;;;;;;;1.00;1.00;;;;;;;;5071077;28;45531;-63
2022/08/01 04:17:39;;;;;;;;;2.00;2.00;;;;;;;;5071001;28;45514;-63
2022/08/01 04:20:04;;;;;;;;;1.25;1.25;;;;;;;;5053081;27;45538;-62
2022/08/01 04:22:30;;;;;;;;;2.00;2.00;;;;;;;;5072972;28;46323;-62
2022/08/01 04:24:57;;;;;;;;;1.50;1.00;;;;;;;;5074280;28;45726;-62
2022/08/01 04:27:28;;;;;;;;;2.00;2.00;;;;;;;;5074224;28;45444;-62
2022/08/01 04:29:56;;;;;;;;;1.25;1.25;;;;;;;;5074141;28;45354;-62
2022/08/01 04:32:22;;;;;;;;;1.00;1.00;;;;;;;;5073806;28;46184;-62
2022/08/01 04:34:47;;;;;;;;;1.00;1.00;;;;;;;;5074025;28;45317;-62
2022/08/01 04:37:16;;;;;;;;;1.00;1.00;;;;;;;;5074304;28;45491;-62
2022/08/01 04:39:41;;;;;;;;;1.00;1.00;;;;;;;;5056198;28;45495;-62
2022/08/01 04:42:07;;;;;;;;;1.00;1.00;;;;;;;;5055389;27;47508;-62
2022/08/01 04:44:32;;;;;;;;;0.00;0.00;;;;;;;;5073925;28;45432;-63
2022/08/01 04:47:02;;;;;;;;;1.00;1.00;;;;;;;;5074118;28;46264;-63
2022/08/01 04:49:29;;;;;;;;;0.00;0.00;;;;;;;;5073953;28;45350;-62
2022/08/01 04:51:59;;;;;;;;;2.75;1.50;;;;;;;;5055529;28;47380;-62
2022/08/01 04:54:25;;;;;;;;;0.00;0.00;;;;;;;;5055630;28;45464;-62
2022/08/01 04:56:53;;;;;;;;;0.00;0.00;;;;;;;;5055463;28;45365;-62
2022/08/01 05:02:02;;;;;;;;;1.00;1.00;;;;;;;;5073413;28;45442;-62
2022/08/01 05:04:27;;;;;;;;;1.00;1.00;;;;;;;;5073614;28;45336;-62
2022/08/01 05:06:52;;;;;;;;;1.00;1.00;;;;;;;;5055722;28;45462;-62
2022/08/01 05:09:17;;;;;;;;;0.00;0.00;;;;;;;;5073679;28;45394;-62
2022/08/01 05:11:42;;;;;;;;;1.00;1.00;;;;;;;;5055337;27;47358;-63
2022/08/01 05:14:08;;;;;;;;;1.50;1.50;;;;;;;;5073646;28;45448;-63
2022/08/01 05:16:33;;;;;;;;;0.75;0.75;;;;;;;;5055491;28;45417;-62
2022/08/01 05:18:58;;;;;;;;;0.75;0.75;;;;;;;;5055183;28;45373;-63
2022/08/01 05:21:23;;;;;;;;;2.00;0.75;;;;;;;;5073320;28;45763;-62
2022/08/01 05:23:48;;;;;;;;;1.00;1.00;;;;;;;;5073357;28;45441;-63
2022/08/01 05:26:14;;;;;;;;;0.75;0.75;;;;;;;;5073486;28;45351;-62
2022/08/01 05:28:39;;;;;;;;;1.00;1.00;;;;;;;;5073513;28;45374;-62
2022/08/01 05:31:04;;;;;;;;;2.00;0.75;;;;;;;;5073265;28;46443;-62
2022/08/01 05:33:29;;;;;;;;;1.00;1.00;;;;;;;;5072012;28;45484;-62
2022/08/01 05:35:54;;;;;;;;;1.00;1.00;;;;;;;;5055215;28;45422;-63
2022/08/01 05:38:20;;;;;;;;;0.00;0.00;;;;;;;;5073249;28;45518;-62
2022/08/01 05:40:45;;;;;;;;;2.25;2.25;;;;;;;;5073161;28;45496;-63
2022/08/01 05:43:10;;;;;;;;;1.00;0.25;;;;;;;;5072976;28;45367;-61
2022/08/01 05:45:36;;;;;;;;;2.00;2.00;;;;;;;;5073263;28;45383;-61
2022/08/01 05:48:01;;;;;;;;;0.75;0.75;;;;;;;;5054934;28;45551;-62
2022/08/01 05:50:26;;;;;;;;;1.00;1.00;;;;;;;;5054792;28;46554;-63
2022/08/01 05:52:51;;;;;;;;;1.00;1.00;;;;;;;;5037836;28;45641;-64
2022/08/01 05:55:17;;;;;;;;;2.00;2.00;;;;;;;;5073308;28;45363;-63
2022/08/01 05:57:42;;;;;;;;;2.00;2.00;;;;;;;;5073077;28;45348;-63
2022/08/01 06:00:07;;;;;;;;;0.25;0.00;;;;;;;;5072935;28;46773;-63
2022/08/01 06:02:33;;;;;;;;;0.25;0.25;;;;;;;;5054795;27;46074;-62
2022/08/01 06:04:58;;;;;;;;;1.00;1.00;;;;;;;;5073055;28;45480;-61
2022/08/01 06:07:23;;;;;;;;;1.00;1.00;;;;;;;;5072880;28;45515;-63
2022/08/01 06:09:48;;;;;;;;;1.00;1.00;;;;;;;;5072747;28;46349;-63
2022/08/01 06:12:13;;;;;;;;;0.50;0.50;;;;;;;;5054590;28;45408;-62
2022/08/01 06:14:39;;;;;;;;;1.00;1.00;;;;;;;;5054925;27;45384;-62
2022/08/01 06:17:04;;;;;;;;;0.00;0.00;;;;;;;;5054486;28;45528;-62
2022/08/01 06:19:29;;;;;;;;;0.25;0.25;;;;;;;;5072715;28;46080;-62
2022/08/01 06:21:54;;;;;;;;;1.00;1.00;;;;;;;;5072544;28;45475;-62
2022/08/01 06:24:19;;;;;;;;;0.00;0.00;;;;;;;;5072776;28;45384;-62
2022/08/01 06:26:45;;;;;;;;;2.00;1.00;;;;;;;;5054329;28;45478;-62
2022/08/01 06:29:10;;;;;;;;;1.00;1.00;;;;;;;;5072652;28;45738;-62
2022/08/01 06:31:35;;;;;;;;;1.00;1.00;;;;;;;;5072615;28;45443;-62
2022/08/01 06:34:00;;;;;;;;;1.25;1.25;;;;;;;;5072554;28;45386;-62
2022/08/01 06:36:25;;;;;;;;;1.25;0.25;;;;;;;;5072656;28;45412;-63
2022/08/01 06:38:51;;;;;;;;;1.00;1.00;;;;;;;;5054067;28;47547;-62
2022/08/01 06:41:16;;;;;;;;;2.50;1.25;;;;;;;;5072312;28;45359;-63
2022/08/01 06:43:41;;;;;;;;;1.50;1.50;;;;;;;;5072267;28;45377;-63
2022/08/01 06:46:06;;;;;;;;;2.00;0.75;;;;;;;;5072158;28;45330;-63
2022/08/01 06:48:32;;;;;;;;;0.50;0.50;;;;;;;;5072537;28;45741;-63
2022/08/01 06:51:11;;;;;;;;;1.25;0.75;;;;;;;;5072319;28;45338;-63
2022/08/01 06:53:36;;;;;;;;;0.25;0.25;;;;;;;;5072403;28;45499;-64
2022/08/01 06:56:02;;;;;;;;;1.00;1.00;;;;;;;;5072267;28;45404;-63
2022/08/01 06:58:27;;;;;;;;;1.50;1.50;;;;;;;;5072080;28;45375;-62
2022/08/01 07:00:52;;;;;;;;;2.50;2.00;;;;;;;;5072122;28;45446;-62
2022/08/01 07:03:17;;;;;;;;;2.00;2.00;;;;;;;;5072247;28;45393;-62
2022/08/01 07:05:43;;;;;;;;;2.75;2.50;;;;;;;;5054297;27;45451;-64
2022/08/01 07:08:08;;;;;;;;;4.00;4.00;;;;;;;;5072018;28;45949;-64
2022/08/01 07:10:33;;;;;;;;;2.50;2.50;;;;;;;;5071977;28;45489;-63
2022/08/01 07:12:58;;;;;;;;;3.00;3.00;;;;;;;;5053915;28;45454;-63
2022/08/01 07:15:26;;;;;;;;;3.50;3.00;;;;;;;;5071976;28;45989;-63
2022/08/01 07:17:51;;;;;;;;;3.75;3.75;;;;;;;;5071498;27;46674;-64
2022/08/01 07:20:17;;;;;;;;;4.25;3.00;;;;;;;;5053587;28;46092;-63
2022/08/01 07:22:42;;;;;;;;;4.75;4.75;;;;;;;;5071859;28;45471;-62
2022/08/01 07:25:08;;;;;;;;;3.25;3.25;;;;;;;;5071779;28;45422;-63
2022/08/01 07:27:34;;;;;;;;;3.25;3.25;;;;;;;;5071271;28;46191;-63
2022/08/01 07:29:59;;;;;;;;;4.00;4.00;;;;;;;;5071665;28;45245;-64
2022/08/01 07:32:24;;;;;;;;;5.00;3.00;;;;;;;;5073046;28;45380;-63
2022/08/01 07:34:50;;;;;;;;;5.00;5.00;;;;;;;;5054219;28;45228;-62
2022/08/01 07:37:15;;;;;;;;;6.00;6.00;;;;;;;;5072587;28;45785;-63
2022/08/01 07:39:40;;;;;;;;;5.00;4.00;;;;;;;;5070554;28;45412;-63
2022/08/01 07:42:06;;;;;;;;;5.50;4.00;;;;;;;;5072166;28;45316;-64
2022/08/01 07:44:31;;;;;;;;;3.50;3.50;;;;;;;;5054510;28;45244;-63
2022/08/01 07:46:56;;;;;;;;;3.50;3.50;;;;;;;;5054336;28;47385;-63
2022/08/01 07:49:21;;;;;;;;;7.00;5.00;;;;;;;;5072535;28;45488;-63
2022/08/01 07:51:47;;;;;;;;;4.00;4.00;;;;;;;;5072572;28;45271;-61
2022/08/01 07:54:12;;;;;;;;;4.50;4.50;;;;;;;;5054316;28;45322;-62
2022/08/01 07:56:37;;;;;;;;;3.50;3.50;;;;;;;;5055154;27;47586;-62
2022/08/01 07:59:02;;;;;;;;;3.00;3.00;;;;;;;;5075484;28;45364;-62
2022/08/01 08:01:27;;;;;;;;;3.50;3.50;;;;;;;;5075562;28;45272;-62
2022/08/01 08:03:53;;;;;;;;;4.00;4.00;;;;;;;;5075448;28;45410;-62
2022/08/01 08:06:18;;;;;;;;;5.00;5.00;;;;;;;;5057125;28;48393;-61
2022/08/01 08:08:43;;;;;;;;;4.50;4.25;;;;;;;;5057281;28;45899;-63
2022/08/01 08:11:09;;;;;;;;;4.25;4.00;;;;;;;;5075662;28;45276;-63
2022/08/01 08:13:34;;;;;;;;;5.25;4.00;;;;;;;;5075544;28;45487;-64
2022/08/01 08:15:59;;;;;;;;;2.25;2.25;;;;;;;;5075409;28;45739;-64
2022/08/01 08:18:25;;;;;;;;;4.50;4.50;;;;;;;;5075332;28;45280;-63
2022/08/01 08:20:50;;;;;;;;;5.00;3.75;;;;;;;;5057065;28;45316;-63
2022/08/01 08:25:59;;;;;;;;;4.50;3.75;;;;;;;;5075221;28;45426;-62
2022/08/01 08:28:24;;;;;;;;;3.00;3.00;;;;;;;;5075188;28;45342;-63
2022/08/01 08:30:49;;;;;;;;;3.75;3.75;;;;;;;;5075410;28;45355;-63
2022/08/01 08:33:15;;;;;;;;;4.00;4.00;;;;;;;;5075296;28;45337;-64
2022/08/01 08:35:41;;;;;;;;;3.00;3.00;;;;;;;;5075006;28;45621;-63
2022/08/01 08:38:06;;;;;;;;;2.25;2.25;;;;;;;;5075274;28;45252;-63
2022/08/01 08:40:34;;;;;;;;;4.75;4.75;;;;;;;;5075422;28;45366;-63
2022/08/01 08:42:59;;;;;;;;;5.50;4.75;;;;;;;;5074862;28;45408;-64
2022/08/01 08:45:25;;;;;;;;;3.50;3.00;;;;;;;;5056629;28;47470;-63
2022/08/01 08:47:51;;;;;;;;;3.00;3.00;;;;;;;;5075200;28;45327;-63
2022/08/01 08:50:16;;;;;;;;;2.75;2.50;;;;;;;;5057072;27;45281;-64
2022/08/01 08:52:43;;;;;;;;;3.00;3.00;;;;;;;;5075172;28;45505;-62
2022/08/01 08:55:10;;;;;;;;;4.00;3.50;;;;;;;;5074738;27;45374;-64
2022/08/01 08:57:38;;;;;;;;;3.75;2.00;;;;;;;;5074792;28;45409;-63
2022/08/01 09:00:04;;;;;;;;;5.75;4.75;;;;;;;;5074916;28;45349;-64
2022/08/01 09:02:29;;;;;;;;;3.00;2.25;;;;;;;;5074892;28;45327;-62
2022/08/01 09:04:55;;;;;;;;;1.75;1.75;;;;;;;;5074708;28;46265;-63
2022/08/01 09:07:20;;;;;;;;;2.75;2.00;;;;;;;;5074797;28;45330;-62
2022/08/01 09:09:48;;;;;;;;;3.50;2.50;;;;;;;;5074740;28;45501;-63
2022/08/01 09:12:15;;;;;;;;;3.25;3.25;;;;;;;;5056456;28;45322;-62
2022/08/01 09:14:44;;;;;;;;;2.00;2.00;;;;;;;;5074397;28;46094;-62
2022/08/01 09:17:10;;;;;;;;;3.00;3.00;;;;;;;;5056387;27;45536;-62
2022/08/01 09:19:38;;;;;;;;;2.25;2.25;;;;;;;;5074612;28;45412;-63
2022/08/01 09:22:04;;;;;;;;;3.00;3.00;;;;;;;;5074481;28;45252;-63
2022/08/01 09:24:30;;;;;;;;;2.25;2.25;;;;;;;;5074486;28;45355;-63
2022/08/01 09:26:56;;;;;;;;;1.75;1.75;;;;;;;;5056113;28;45369;-63
2022/08/01 09:29:23;;;;;;;;;2.00;2.00;;;;;;;;5074680;28;45369;-63
2022/08/01 09:31:49;;;;;;;;;2.25;2.25;;;;;;;;5074621;28;45381;-63
2022/08/01 09:34:15;;;;;;;;;2.75;1.75;;;;;;;;5074337;28;45434;-63
2022/08/01 09:36:51;;;;;;;;;1.50;1.50;;;;;;;;5074428;28;45468;-63
2022/08/01 09:39:16;;;;;;;;;4.00;4.00;;;;;;;;5074529;28;45419;-63
2022/08/01 09:41:42;;;;;;;;;4.00;3.00;;;;;;;;5074425;28;45350;-63
2022/08/01 09:44:07;;;;;;;;;3.00;3.00;;;;;;;;5074323;28;45565;-62
2022/08/01 09:46:32;;;;;;;;;2.00;2.00;;;;;;;;5074451;28;45372;-62
2022/08/01 09:48:58;;;;;;;;;2.75;2.75;;;;;;;;5056222;28;45478;-62
2022/08/01 09:51:42;;;;;;;;;4.50;3.00;;;;;;;;5056151;28;45327;-62
2022/08/01 09:54:08;;;;;;;;;4.25;3.25;;;;;;;;5074163;28;47015;-62
2022/08/01 09:56:38;;;;;;;;;1.75;1.75;;;;;;;;5074288;28;45412;-62
2022/08/01 09:59:03;;;;;;;;;3.25;3.25;;;;;;;;5074267;28;45318;-63
2022/08/01 10:01:40;;;;;;;;;2.00;2.00;;;;;;;;5074223;28;45333;-63
2022/08/01 10:04:12;;;;;;;;;3.00;3.00;;;;;;;;5055732;28;47599;-63
2022/08/01 10:06:42;;;;;;;;;3.00;3.00;;;;;;;;5055798;28;46178;-63
2022/08/01 10:09:08;;;;;;;;;2.50;2.50;;;;;;;;5074215;28;45371;-63
2022/08/01 10:11:36;;;;;;;;;2.50;2.50;;;;;;;;5074079;28;45384;-62
2022/08/01 10:14:02;;;;;;;;;3.50;3.25;;;;;;;;5073824;28;46405;-63
2022/08/01 10:16:28;;;;;;;;;4.25;3.25;;;;;;;;5073886;28;45348;-63
2022/08/01 10:18:53;;;;;;;;;3.00;3.00;;;;;;;;5073298;27;45336;-63
2022/08/01 10:21:19;;;;;;;;;3.75;2.00;;;;;;;;5055470;28;45330;-63
2022/08/01 10:23:45;;;;;;;;;2.50;2.50;;;;;;;;5073605;28;46434;-63
2022/08/01 10:26:11;;;;;;;;;2.00;2.00;;;;;;;;5055542;28;45475;-63
2022/08/01 10:28:38;;;;;;;;;3.25;3.25;;;;;;;;5055953;28;45295;-63
2022/08/01 10:31:03;;;;;;;;;1.50;1.50;;;;;;;;5055799;28;45300;-63
2022/08/01 10:33:29;;;;;;;;;1.50;0.75;;;;;;;;5073603;28;45602;-64
2022/08/01 10:35:54;;;;;;;;;3.25;3.25;;;;;;;;5073737;28;45433;-64
2022/08/01 10:38:20;;;;;;;;;3.50;3.50;;;;;;;;5073662;28;45320;-62
2022/08/01 10:40:45;;;;;;;;;4.00;4.00;;;;;;;;5055565;28;45352;-64
2022/08/01 10:43:11;;;;;;;;;5.00;4.25;;;;;;;;5073277;28;46367;-63
2022/08/01 10:45:36;;;;;;;;;4.75;3.00;;;;;;;;5055149;28;45927;-62
2022/08/01 10:48:14;;;;;;;;;3.00;3.00;;;;;;;;5055385;28;45349;-64
2022/08/01 10:50:39;;;;;;;;;6.00;5.50;;;;;;;;5070500;28;45327;-62
2022/08/01 10:53:09;;;;;;;;;4.00;4.00;;;;;;;;5071310;28;46685;-64
2022/08/01 10:55:50;;;;;;;;;3.00;3.00;;;;;;;;5052893;27;46227;-64
2022/08/01 10:58:25;;;;;;;;;3.25;3.25;;;;;;;;5071241;28;45902;-64
2022/08/01 11:01:08;;;;;;;;;3.00;3.00;;;;;;;;5071245;28;45421;-62
2022/08/01 11:03:35;;;;;;;;;3.00;3.00;;;;;;;;5070175;28;45325;-65
2022/08/01 11:06:03;;;;;;;;;3.00;3.00;;;;;;;;5071056;28;45708;-64
2022/08/01 11:08:28;;;;;;;;;1.75;1.75;;;;;;;;5071386;28;45620;-63
2022/08/01 11:11:00;;;;;;;;;3.00;3.00;;;;;;;;5071036;28;45414;-63
2022/08/01 11:13:43;;;;;;;;;4.00;4.00;;;;;;;;5070619;28;45396;-63
2022/08/01 11:16:27;;;;;;;;;5.25;4.25;;;;;;;;5070609;28;45519;-62
2022/08/01 11:18:53;;;;;;;;;4.75;4.75;;;;;;;;5071037;27;45468;-63
2022/08/01 11:21:19;;;;;;;;;4.00;4.00;;;;;;;;5071371;28;45542;-62
2022/08/01 11:23:48;;;;;;;;;4.50;4.50;;;;;;;;5052551;28;47555;-62
2022/08/01 11:26:14;;;;;;;;;2.75;2.75;;;;;;;;5070651;28;45396;-63
2022/08/01 11:28:40;;;;;;;;;3.75;3.00;;;;;;;;5070427;28;45433;-64
2022/08/01 11:31:08;;;;;;;;;4.00;4.00;;;;;;;;5071665;28;45397;-64
2022/08/01 11:33:39;;;;;;;;;3.75;3.75;;;;;;;;5073184;28;45518;-65
2022/08/01 11:36:10;;;;;;;;;3.00;3.00;;;;;;;;5074336;28;45409;-64
2022/08/01 11:38:39;;;;;;;;;3.00;3.00;;;;;;;;5075412;28;45509;-63
2022/08/01 11:41:23;;;;;;;;;6.00;4.75;;;;;;;;5076028;28;45295;-63
2022/08/01 11:43:56;;;;;;;;;5.00;5.00;;;;;;;;5075536;28;48490;-63
2022/08/01 11:46:40;;;;;;;;;3.75;3.75;;;;;;;;5075876;28;45305;-63
2022/08/01 11:49:21;;;;;;;;;6.25;6.00;;;;;;;;5075866;28;45357;-62
2022/08/01 11:51:47;;;;;;;;;6.75;5.25;;;;;;;;5057583;28;45369;-64
2022/08/01 11:54:12;;;;;;;;;5.00;5.00;;;;;;;;5057348;28;47247;-63
2022/08/01 11:56:37;;;;;;;;;5.25;5.25;;;;;;;;5075715;28;45728;-63
2022/08/01 11:59:03;;;;;;;;;3.75;3.75;;;;;;;;5075716;28;45271;-63
2022/08/01 12:01:28;;;;;;;;;4.50;3.75;;;;;;;;5057329;28;45600;-63
2022/08/01 12:03:55;;;;;;;;;4.50;4.00;;;;;;;;5075552;28;45770;-63
2022/08/01 12:06:28;;;;;;;;;2.75;2.75;;;;;;;;5075576;28;45402;-62
2022/08/01 12:08:53;;;;;;;;;3.75;3.75;;;;;;;;5075455;28;45379;-64
2022/08/01 12:11:18;;;;;;;;;3.00;3.00;;;;;;;;5057270;28;45386;-63
2022/08/01 12:13:44;;;;;;;;;4.00;4.00;;;;;;;;5075477;28;45620;-62
2022/08/01 12:16:10;;;;;;;;;6.00;4.00;;;;;;;;5075460;28;45474;-63
2022/08/01 12:18:39;;;;;;;;;5.25;5.25;;;;;;;;5075553;27;45493;-63
2022/08/01 12:21:04;;;;;;;;;3.75;3.75;;;;;;;;5075582;28;45395;-63
2022/08/01 12:23:30;;;;;;;;;4.00;4.00;;;;;;;;5056672;28;47320;-63
2022/08/01 12:25:55;;;;;;;;;6.00;4.25;;;;;;;;5075143;28;45343;-63
2022/08/01 12:28:20;;;;;;;;;4.00;4.00;;;;;;;;5075337;28;45205;-63
2022/08/01 12:30:47;;;;;;;;;4.25;3.25;;;;;;;;5075459;28;45388;-64
2022/08/01 12:33:16;;;;;;;;;3.25;2.75;;;;;;;;5074932;28;46129;-63
2022/08/01 12:35:41;;;;;;;;;3.00;3.00;;;;;;;;5074933;28;45366;-64
2022/08/01 12:38:14;;;;;;;;;4.50;4.50;;;;;;;;5075177;28;45284;-63
2022/08/01 12:40:43;;;;;;;;;3.50;3.50;;;;;;;;5075251;28;45416;-64
2022/08/01 12:43:08;;;;;;;;;3.75;3.75;;;;;;;;5055982;28;46904;-63
2022/08/01 12:45:39;;;;;;;;;3.25;3.25;;;;;;;;5074854;28;45352;-63
2022/08/01 12:48:07;;;;;;;;;4.50;4.50;;;;;;;;5075103;28;45396;-64
2022/08/01 12:50:33;;;;;;;;;4.50;4.50;;;;;;;;5075011;28;45333;-63
2022/08/01 12:52:58;;;;;;;;;4.75;4.75;;;;;;;;5056442;28;46492;-63
2022/08/01 12:55:25;;;;;;;;;4.50;4.50;;;;;;;;5074958;28;45272;-63
2022/08/01 12:58:03;;;;;;;;;3.75;3.75;;;;;;;;5075210;28;45262;-63
2022/08/01 13:00:29;;;;;;;;;5.25;5.25;;;;;;;;5056602;27;45340;-62
2022/08/01 13:03:07;;;;;;;;;4.75;4.75;;;;;;;;5056288;28;46516;-63
2022/08/01 13:05:51;;;;;;;;;5.00;5.00;;;;;;;;5074541;28;45322;-63
2022/08/01 13:08:20;;;;;;;;;6.00;6.00;;;;;;;;5074865;28;45374;-64
2022/08/01 13:10:46;;;;;;;;;3.75;3.75;;;;;;;;5074757;28;45368;-63
2022/08/01 13:13:12;;;;;;;;;4.00;4.00;;;;;;;;5056151;28;47409;-63
2022/08/01 13:15:39;;;;;;;;;4.00;4.00;;;;;;;;5056562;27;45477;-63
2022/08/01 13:18:25;;;;;;;;;2.00;2.00;;;;;;;;5062721;28;45353;-65
2022/08/01 13:21:06;;;;;;;;;3.50;3.50;;;;;;;;5054239;28;45437;-63
2022/08/01 13:23:31;;;;;;;;;4.00;4.00;;;;;;;;5035998;28;47433;-63
2022/08/01 13:25:56;;;;;;;;;4.00;4.00;;;;;;;;5054079;28;45308;-65
2022/08/01 13:28:23;;;;;;;;;4.00;4.00;;;;;;;;5036635;28;45360;-63
2022/08/01 13:30:51;;;;;;;;;3.00;3.00;;;;;;;;5036612;28;45489;-63
2022/08/01 13:33:16;;;;;;;;;3.00;3.00;;;;;;;;5054368;28;45760;-63
2022/08/01 13:35:42;;;;;;;;;3.25;3.25;;;;;;;;5052151;28;45496;-63
2022/08/01 13:38:07;;;;;;;;;4.00;2.50;;;;;;;;5053811;28;45395;-63
2022/08/01 13:40:32;;;;;;;;;3.00;3.00;;;;;;;;5036093;28;45306;-64
2022/08/01 13:42:57;;;;;;;;;4.00;4.00;;;;;;;;5053883;28;45874;-63
2022/08/01 13:45:23;;;;;;;;;4.00;2.50;;;;;;;;5036111;28;45448;-64
2022/08/01 13:47:48;;;;;;;;;2.25;2.25;;;;;;;;5054224;28;45290;-64
2022/08/01 13:50:13;;;;;;;;;2.50;2.50;;;;;;;;5054258;28;45282;-63
2022/08/01 13:52:39;;;;;;;;;4.50;3.50;;;;;;;;5053963;28;46335;-64
2022/08/01 13:55:04;;;;;;;;;2.25;2.00;;;;;;;;5034974;28;45410;-63
2022/08/01 13:57:29;;;;;;;;;3.00;3.00;;;;;;;;5036117;28;45267;-63
2022/08/01 13:59:54;;;;;;;;;2.25;2.25;;;;;;;;5054113;28;45345;-64
2022/08/01 14:02:20;;;;;;;;;2.00;2.00;;;;;;;;5053927;28;45876;-64
2022/08/01 14:04:45;;;;;;;;;4.00;4.00;;;;;;;;5053852;28;45276;-64
2022/08/01 14:07:10;;;;;;;;;2.75;2.75;;;;;;;;5054042;28;45310;-62
2022/08/01 14:09:35;;;;;;;;;1.75;1.75;;;;;;;;5054060;28;45338;-63
2022/08/01 14:12:01;;;;;;;;;4.00;4.00;;;;;;;;5053815;28;45735;-64
2022/08/01 14:14:26;;;;;;;;;3.00;3.00;;;;;;;;5053969;28;45181;-63
2022/08/01 14:16:51;;;;;;;;;2.75;2.75;;;;;;;;5035733;28;45355;-64
2022/08/01 14:19:17;;;;;;;;;3.00;3.00;;;;;;;;5053911;28;45165;-64
2022/08/01 14:21:43;;;;;;;;;3.00;3.00;;;;;;;;5053687;28;45555;-63
2022/08/01 14:24:09;;;;;;;;;3.00;3.00;;;;;;;;5035836;27;45431;-63
2022/08/01 14:26:34;;;;;;;;;2.75;2.75;;;;;;;;5053548;28;45301;-62
2022/08/01 14:28:59;;;;;;;;;3.00;3.00;;;;;;;;5053583;28;45375;-63
2022/08/01 14:31:25;;;;;;;;;2.75;2.75;;;;;;;;5053509;28;45659;-62
2022/08/01 14:33:50;;;;;;;;;4.00;2.75;;;;;;;;5053647;28;45366;-62
2022/08/01 14:36:15;;;;;;;;;1.75;1.75;;;;;;;;5053349;28;45278;-62
2022/08/01 14:38:40;;;;;;;;;2.75;2.75;;;;;;;;5053729;28;45368;-63
2022/08/01 14:41:05;;;;;;;;;1.25;1.25;;;;;;;;5053489;28;45423;-63
2022/08/01 14:43:32;;;;;;;;;3.00;3.00;;;;;;;;5053193;28;45857;-62
2022/08/01 14:45:57;;;;;;;;;3.00;3.00;;;;;;;;5053512;28;45315;-62
2022/08/01 14:48:22;;;;;;;;;4.75;3.75;;;;;;;;5053449;28;45346;-63